Terminal Aerodrome Forecast
Issued by NWS

Current Version | Previous Version | Text Only | Print | Product List | Glossary On
Versions: 1 2 3 4 5 6 7 8 9 10 11 12 13
000
FTUS42 TJSJ 191700
TAFKPK
TAF
TKPK 191734Z 1918/2018 05009KT P6SM FEW018 SCT040
     FM192300 08008KT P6SM VCSH SCT019
     FM201430 07008KT P6SM FEW020 SCT040=

USA.gov is the U.S. government's official web portal to all federal, state and local government web resources and services.